createdAt,value
2023-02-02T00:02:03.842Z,24.90
2023-02-02T00:12:13.064Z,24.90
2023-02-02T00:22:19.728Z,24.80
2023-02-02T00:32:28.054Z,24.80
2023-02-02T00:42:34.904Z,25.00
2023-02-02T00:52:46.378Z,25.00
2023-02-02T02:16:41.766Z,24.90
2023-02-02T02:28:04.758Z,25.00
2023-02-02T02:38:30.240Z,25.30
2023-02-02T03:00:26.554Z,25.60
2023-02-02T03:10:36.405Z,25.70
2023-02-02T03:21:23.817Z,25.80
2023-02-02T03:31:55.922Z,26.00
2023-02-02T03:42:10.037Z,26.00
2023-02-02T03:52:18.068Z,26.10
2023-02-02T04:02:34.470Z,26.10
2023-02-02T05:24:39.692Z,26.50
2023-02-02T05:34:50.328Z,26.50
2023-02-02T07:26:20.253Z,27.50
2023-02-02T15:34:17.083Z,28.00
2023-02-02T16:19:56.125Z,27.90
2023-02-02T17:05:07.999Z,27.30
2023-02-02T17:15:38.104Z,27.10
2023-02-02T17:25:48.735Z,26.90
2023-02-02T17:35:59.810Z,26.90
2023-02-02T17:58:37.733Z,26.80
2023-02-02T18:19:29.037Z,26.80
2023-02-02T18:29:37.006Z,26.80
2023-02-02T18:40:12.641Z,26.70
2023-02-02T18:50:25.439Z,26.60
2023-02-02T19:01:14.109Z,26.60
2023-02-02T19:11:30.148Z,26.60
2023-02-02T19:21:38.746Z,26.50
2023-02-02T19:31:56.296Z,26.40
2023-02-02T19:54:56.952Z,26.70
2023-02-02T20:17:47.885Z,26.60
2023-02-02T20:28:58.008Z,26.60
2023-02-02T20:40:55.519Z,26.40
2023-02-02T20:51:38.717Z,26.10
2023-02-02T21:02:18.120Z,25.90
2023-02-02T21:35:20.890Z,25.70
2023-02-02T21:46:29.787Z,25.50
2023-02-02T22:08:25.669Z,25.30
2023-02-02T22:18:37.112Z,25.50
2023-02-02T22:28:48.427Z,25.50
2023-02-02T22:38:55.762Z,25.40
2023-02-02T22:49:04.229Z,25.30
2023-02-02T22:59:11.006Z,25.30
2023-02-02T23:09:19.413Z,25.30
2023-02-02T23:19:26.192Z,25.30
2023-02-02T23:29:34.510Z,25.30
2023-02-02T23:52:02.977Z,25.50
